Terminal Aerodrome Forecast
Issued by NWS Chicago, IL

Home | Current Version | Previous Version | Text Only | Print | Product List | Glossary On
Versions: 1 2 3 4 5 6 7 8 9 10 11 12 13 14 15 16 17 18 19 20 21 22 23 24 25 26 27 28 29 30 31 32 33 34 35
000
FTUS43 KLOT 281100
TAFRFD
TAF
KRFD 281140Z 2812/0112 16003KT P6SM SKC
     FM281600 17007KT P6SM SCT120
     FM010000 14005KT P6SM OVC045
     FM010300 15005KT 4SM -SN OVC025
     FM010800 17004KT P6SM SCT025 OVC045=

USA.gov is the U.S. government's official web portal to all federal, state and local government web resources and services.